sensor_id;sensor_type;location;lat;lon;timestamp;temperature;humidity
68766;DHT22;55756;45.582;11.484;2023-04-03T00:00:26;16.00;49.00
68766;DHT22;55756;45.582;11.484;2023-04-03T00:02:52;16.00;49.20
68766;DHT22;55756;45.582;11.484;2023-04-03T00:05:17;15.90;49.30
68766;DHT22;55756;45.582;11.484;2023-04-03T00:07:43;16.00;49.20
68766;DHT22;55756;45.582;11.484;2023-04-03T00:10:09;16.00;49.00
68766;DHT22;55756;45.582;11.484;2023-04-03T00:12:35;16.00;49.50
68766;DHT22;55756;45.582;11.484;2023-04-03T00:15:00;15.90;49.60
68766;DHT22;55756;45.582;11.484;2023-04-03T00:17:26;16.00;48.90
68766;DHT22;55756;45.582;11.484;2023-04-03T00:19:52;15.90;49.50
68766;DHT22;55756;45.582;11.484;2023-04-03T00:22:17;15.90;49.80
68766;DHT22;55756;45.582;11.484;2023-04-03T00:24:43;15.90;49.80
68766;DHT22;55756;45.582;11.484;2023-04-03T00:27:09;15.90;50.30
68766;DHT22;55756;45.582;11.484;2023-04-03T00:29:34;15.80;50.30
68766;DHT22;55756;45.582;11.484;2023-04-03T00:32:00;15.80;50.30
68766;DHT22;55756;45.582;11.484;2023-04-03T00:34:26;15.80;50.50
68766;DHT22;55756;45.582;11.484;2023-04-03T00:36:52;15.80;50.40
68766;DHT22;55756;45.582;11.484;2023-04-03T00:39:17;15.80;50.50
68766;DHT22;55756;45.582;11.484;2023-04-03T00:41:43;15.80;50.70
68766;DHT22;55756;45.582;11.484;2023-04-03T00:46:53;15.70;50.70
68766;DHT22;55756;45.582;11.484;2023-04-03T00:49:21;15.70;51.00
68766;DHT22;55756;45.582;11.484;2023-04-03T00:51:46;15.70;51.10
68766;DHT22;55756;45.582;11.484;2023-04-03T00:54:12;15.60;51.30
68766;DHT22;55756;45.582;11.484;2023-04-03T00:56:38;15.60;51.30
68766;DHT22;55756;45.582;11.484;2023-04-03T00:59:11;15.60;51.50
68766;DHT22;55756;45.582;11.484;2023-04-03T01:01:38;15.60;51.50
68766;DHT22;55756;45.582;11.484;2023-04-03T01:04:05;15.50;51.70
68766;DHT22;55756;45.582;11.484;2023-04-03T01:06:36;15.40;51.80
68766;DHT22;55756;45.582;11.484;2023-04-03T01:09:06;15.40;51.60
68766;DHT22;55756;45.582;11.484;2023-04-03T01:11:32;15.40;51.60
68766;DHT22;55756;45.582;11.484;2023-04-03T01:13:59;15.40;51.30
68766;DHT22;55756;45.582;11.484;2023-04-03T01:16:27;15.40;51.30
68766;DHT22;55756;45.582;11.484;2023-04-03T01:18:58;15.40;51.30
68766;DHT22;55756;45.582;11.484;2023-04-03T01:21:55;15.40;51.30
68766;DHT22;55756;45.582;11.484;2023-04-03T01:24:33;15.40;51.20
68766;DHT22;55756;45.582;11.484;2023-04-03T01:27:03;15.40;51.20
68766;DHT22;55756;45.582;11.484;2023-04-03T01:29:29;15.40;51.30
68766;DHT22;55756;45.582;11.484;2023-04-03T01:31:58;15.20;51.50
68766;DHT22;55756;45.582;11.484;2023-04-03T01:34:24;15.10;51.70
68766;DHT22;55756;45.582;11.484;2023-04-03T01:36:51;15.10;51.90
68766;DHT22;55756;45.582;11.484;2023-04-03T01:39:18;15.10;51.90
68766;DHT22;55756;45.582;11.484;2023-04-03T01:41:44;15.00;51.90
68766;DHT22;55756;45.582;11.484;2023-04-03T01:44:15;15.00;51.90
68766;DHT22;55756;45.582;11.484;2023-04-03T01:46:41;15.00;51.70
68766;DHT22;55756;45.582;11.484;2023-04-03T01:49:08;15.00;51.70
68766;DHT22;55756;45.582;11.484;2023-04-03T01:51:34;14.90;51.50
68766;DHT22;55756;45.582;11.484;2023-04-03T01:54:00;14.90;51.50
68766;DHT22;55756;45.582;11.484;2023-04-03T01:56:26;14.90;51.40
68766;DHT22;55756;45.582;11.484;2023-04-03T01:58:53;15.00;51.10
68766;DHT22;55756;45.582;11.484;2023-04-03T02:01:19;14.90;51.10
68766;DHT22;55756;45.582;11.484;2023-04-03T02:03:44;14.90;50.90
68766;DHT22;55756;45.582;11.484;2023-04-03T02:06:10;14.90;50.70
68766;DHT22;55756;45.582;11.484;2023-04-03T02:08:36;14.90;50.50
68766;DHT22;55756;45.582;11.484;2023-04-03T02:11:02;14.90;50.20
68766;DHT22;55756;45.582;11.484;2023-04-03T02:13:27;14.90;49.90
68766;DHT22;55756;45.582;11.484;2023-04-03T02:15:53;14.80;49.70
68766;DHT22;55756;45.582;11.484;2023-04-03T02:18:19;14.80;49.60
68766;DHT22;55756;45.582;11.484;2023-04-03T02:20:46;14.80;49.60
68766;DHT22;55756;45.582;11.484;2023-04-03T02:23:12;14.70;49.90
68766;DHT22;55756;45.582;11.484;2023-04-03T02:25:37;14.70;49.80
68766;DHT22;55756;45.582;11.484;2023-04-03T02:28:03;14.80;49.20
68766;DHT22;55756;45.582;11.484;2023-04-03T02:30:30;14.80;48.90
68766;DHT22;55756;45.582;11.484;2023-04-03T02:32:56;14.70;48.80
68766;DHT22;55756;45.582;11.484;2023-04-03T02:35:21;14.70;48.60
68766;DHT22;55756;45.582;11.484;2023-04-03T02:37:48;14.60;48.70
68766;DHT22;55756;45.582;11.484;2023-04-03T02:40:14;14.60;49.00
68766;DHT22;55756;45.582;11.484;2023-04-03T02:42:40;14.60;49.10
68766;DHT22;55756;45.582;11.484;2023-04-03T02:45:06;14.60;49.20
68766;DHT22;55756;45.582;11.484;2023-04-03T02:47:32;14.80;49.00
68766;DHT22;55756;45.582;11.484;2023-04-03T02:49:58;14.80;49.20
68766;DHT22;55756;45.582;11.484;2023-04-03T02:52:24;14.70;49.30
68766;DHT22;55756;45.582;11.484;2023-04-03T02:54:52;14.70;49.60
68766;DHT22;55756;45.582;11.484;2023-04-03T02:57:18;14.60;49.80
68766;DHT22;55756;45.582;11.484;2023-04-03T02:59:45;14.60;50.10
68766;DHT22;55756;45.582;11.484;2023-04-03T03:02:11;14.70;50.20
68766;DHT22;55756;45.582;11.484;2023-04-03T03:04:37;14.70;50.10
68766;DHT22;55756;45.582;11.484;2023-04-03T03:07:03;14.60;50.30
68766;DHT22;55756;45.582;11.484;2023-04-03T03:09:29;14.50;50.70
68766;DHT22;55756;45.582;11.484;2023-04-03T03:11:56;14.40;50.90
68766;DHT22;55756;45.582;11.484;2023-04-03T03:14:22;14.40;51.10
68766;DHT22;55756;45.582;11.484;2023-04-03T03:16:48;14.40;51.10
68766;DHT22;55756;45.582;11.484;2023-04-03T03:19:14;14.40;51.10
68766;DHT22;55756;45.582;11.484;2023-04-03T03:21:40;14.40;51.00
68766;DHT22;55756;45.582;11.484;2023-04-03T03:24:06;14.30;51.00
68766;DHT22;55756;45.582;11.484;2023-04-03T03:26:32;14.30;51.00
68766;DHT22;55756;45.582;11.484;2023-04-03T03:28:58;14.30;51.00
68766;DHT22;55756;45.582;11.484;2023-04-03T03:31:24;14.30;50.70
68766;DHT22;55756;45.582;11.484;2023-04-03T03:33:49;14.40;50.40
68766;DHT22;55756;45.582;11.484;2023-04-03T03:36:15;14.30;50.10
68766;DHT22;55756;45.582;11.484;2023-04-03T03:38:41;14.20;50.30
68766;DHT22;55756;45.582;11.484;2023-04-03T03:41:08;14.20;50.30
68766;DHT22;55756;45.582;11.484;2023-04-03T03:43:34;14.20;50.30
68766;DHT22;55756;45.582;11.484;2023-04-03T03:46:02;14.20;50.20
68766;DHT22;55756;45.582;11.484;2023-04-03T03:48:28;14.20;50.10
68766;DHT22;55756;45.582;11.484;2023-04-03T03:50:54;14.30;50.10
68766;DHT22;55756;45.582;11.484;2023-04-03T03:53:23;14.30;50.00
68766;DHT22;55756;45.582;11.484;2023-04-03T03:55:52;14.40;49.90
68766;DHT22;55756;45.582;11.484;2023-04-03T03:58:20;14.40;49.80
68766;DHT22;55756;45.582;11.484;2023-04-03T04:00:46;14.40;50.00
68766;DHT22;55756;45.582;11.484;2023-04-03T04:03:12;14.40;50.10
68766;DHT22;55756;45.582;11.484;2023-04-03T04:05:39;14.40;50.20
68766;DHT22;55756;45.582;11.484;2023-04-03T04:08:05;14.40;50.30
68766;DHT22;55756;45.582;11.484;2023-04-03T04:10:32;14.30;50.40
68766;DHT22;55756;45.582;11.484;2023-04-03T04:12:58;14.30;50.40
68766;DHT22;55756;45.582;11.484;2023-04-03T04:15:27;14.30;50.40
68766;DHT22;55756;45.582;11.484;2023-04-03T04:17:55;14.30;50.50
68766;DHT22;55756;45.582;11.484;2023-04-03T04:20:21;14.30;50.50
68766;DHT22;55756;45.582;11.484;2023-04-03T04:22:48;14.30;50.60
68766;DHT22;55756;45.582;11.484;2023-04-03T04:25:15;14.20;50.70
68766;DHT22;55756;45.582;11.484;2023-04-03T04:27:40;14.20;50.90
68766;DHT22;55756;45.582;11.484;2023-04-03T04:30:07;14.10;51.00
68766;DHT22;55756;45.582;11.484;2023-04-03T04:32:34;14.10;51.10
68766;DHT22;55756;45.582;11.484;2023-04-03T04:35:00;14.10;51.20
68766;DHT22;55756;45.582;11.484;2023-04-03T04:37:27;14.10;51.30
68766;DHT22;55756;45.582;11.484;2023-04-03T04:39:53;14.20;51.20
68766;DHT22;55756;45.582;11.484;2023-04-03T04:42:18;14.20;51.10
68766;DHT22;55756;45.582;11.484;2023-04-03T04:44:47;14.10;51.20
68766;DHT22;55756;45.582;11.484;2023-04-03T04:47:14;14.10;51.40
68766;DHT22;55756;45.582;11.484;2023-04-03T04:49:41;14.10;51.40
68766;DHT22;55756;45.582;11.484;2023-04-03T04:52:07;14.10;51.30
68766;DHT22;55756;45.582;11.484;2023-04-03T04:54:34;14.10;51.50
68766;DHT22;55756;45.582;11.484;2023-04-03T04:56:59;14.10;51.50
68766;DHT22;55756;45.582;11.484;2023-04-03T04:59:27;14.10;51.40
68766;DHT22;55756;45.582;11.484;2023-04-03T05:01:55;14.10;51.20
68766;DHT22;55756;45.582;11.484;2023-04-03T05:04:21;14.10;51.30
68766;DHT22;55756;45.582;11.484;2023-04-03T05:06:50;13.90;51.60
68766;DHT22;55756;45.582;11.484;2023-04-03T05:09:21;13.70;52.20
68766;DHT22;55756;45.582;11.484;2023-04-03T05:11:49;13.70;52.30
68766;DHT22;55756;45.582;11.484;2023-04-03T05:14:16;13.60;52.50
68766;DHT22;55756;45.582;11.484;2023-04-03T05:16:43;13.60;52.80
68766;DHT22;55756;45.582;11.484;2023-04-03T05:19:08;13.60;52.70
68766;DHT22;55756;45.582;11.484;2023-04-03T05:21:35;13.60;52.60
68766;DHT22;55756;45.582;11.484;2023-04-03T05:24:06;13.70;52.10
68766;DHT22;55756;45.582;11.484;2023-04-03T05:26:37;13.70;52.10
68766;DHT22;55756;45.582;11.484;2023-04-03T05:29:03;13.60;52.20
68766;DHT22;55756;45.582;11.484;2023-04-03T05:31:29;13.60;52.10
68766;DHT22;55756;45.582;11.484;2023-04-03T05:33:56;13.60;51.80
68766;DHT22;55756;45.582;11.484;2023-04-03T05:36:22;13.70;51.40
68766;DHT22;55756;45.582;11.484;2023-04-03T05:38:53;13.60;51.70
68766;DHT22;55756;45.582;11.484;2023-04-03T05:41:19;13.60;51.80
68766;DHT22;55756;45.582;11.484;2023-04-03T05:43:46;13.70;51.80
68766;DHT22;55756;45.582;11.484;2023-04-03T05:46:15;13.60;52.00
68766;DHT22;55756;45.582;11.484;2023-04-03T05:48:43;13.70;52.10
68766;DHT22;55756;45.582;11.484;2023-04-03T05:51:24;13.60;52.50
68766;DHT22;55756;45.582;11.484;2023-04-03T05:54:01;13.60;52.80
68766;DHT22;55756;45.582;11.484;2023-04-03T05:56:29;13.70;53.00
68766;DHT22;55756;45.582;11.484;2023-04-03T05:58:55;13.70;53.20
68766;DHT22;55756;45.582;11.484;2023-04-03T06:01:22;13.70;53.40
68766;DHT22;55756;45.582;11.484;2023-04-03T06:03:49;13.70;53.50
68766;DHT22;55756;45.582;11.484;2023-04-03T06:06:15;13.80;53.20
68766;DHT22;55756;45.582;11.484;2023-04-03T06:08:41;13.80;53.00
68766;DHT22;55756;45.582;11.484;2023-04-03T06:11:07;13.80;52.90
68766;DHT22;55756;45.582;11.484;2023-04-03T06:13:34;13.90;53.00
68766;DHT22;55756;45.582;11.484;2023-04-03T06:16:01;13.90;53.10
68766;DHT22;55756;45.582;11.484;2023-04-03T06:18:27;14.00;53.00
68766;DHT22;55756;45.582;11.484;2023-04-03T06:20:54;14.10;53.00
68766;DHT22;55756;45.582;11.484;2023-04-03T06:23:20;14.10;53.00
68766;DHT22;55756;45.582;11.484;2023-04-03T06:25:46;14.10;53.00
68766;DHT22;55756;45.582;11.484;2023-04-03T06:28:12;14.20;53.10
68766;DHT22;55756;45.582;11.484;2023-04-03T06:30:38;14.30;53.10
68766;DHT22;55756;45.582;11.484;2023-04-03T06:33:03;14.40;53.10
68766;DHT22;55756;45.582;11.484;2023-04-03T06:35:30;14.40;53.30
68766;DHT22;55756;45.582;11.484;2023-04-03T06:37:56;14.40;53.50
68766;DHT22;55756;45.582;11.484;2023-04-03T06:40:25;14.50;53.70
68766;DHT22;55756;45.582;11.484;2023-04-03T06:42:52;14.60;53.70
68766;DHT22;55756;45.582;11.484;2023-04-03T06:45:21;14.60;53.90
68766;DHT22;55756;45.582;11.484;2023-04-03T06:47:47;14.70;54.00
68766;DHT22;55756;45.582;11.484;2023-04-03T06:50:13;14.70;54.50
68766;DHT22;55756;45.582;11.484;2023-04-03T06:52:40;14.80;54.70
68766;DHT22;55756;45.582;11.484;2023-04-03T06:55:07;14.90;54.90
68766;DHT22;55756;45.582;11.484;2023-04-03T06:57:33;15.00;54.70
68766;DHT22;55756;45.582;11.484;2023-04-03T06:59:59;15.00;54.80
68766;DHT22;55756;45.582;11.484;2023-04-03T07:02:25;15.00;54.90
68766;DHT22;55756;45.582;11.484;2023-04-03T07:04:51;15.10;54.80
68766;DHT22;55756;45.582;11.484;2023-04-03T07:07:17;15.10;54.60
68766;DHT22;55756;45.582;11.484;2023-04-03T07:09:43;15.10;54.70
68766;DHT22;55756;45.582;11.484;2023-04-03T07:12:09;15.20;54.70
68766;DHT22;55756;45.582;11.484;2023-04-03T07:14:34;15.20;54.50
68766;DHT22;55756;45.582;11.484;2023-04-03T07:17:00;15.30;54.40
68766;DHT22;55756;45.582;11.484;2023-04-03T07:19:26;15.30;54.20
68766;DHT22;55756;45.582;11.484;2023-04-03T07:21:53;15.30;54.50
68766;DHT22;55756;45.582;11.484;2023-04-03T07:24:20;15.30;54.80
68766;DHT22;55756;45.582;11.484;2023-04-03T07:26:49;15.40;54.80
68766;DHT22;55756;45.582;11.484;2023-04-03T07:29:15;15.50;54.80
68766;DHT22;55756;45.582;11.484;2023-04-03T07:31:42;15.50;54.30
68766;DHT22;55756;45.582;11.484;2023-04-03T07:34:08;15.50;54.50
68766;DHT22;55756;45.582;11.484;2023-04-03T07:36:34;15.60;54.20
68766;DHT22;55756;45.582;11.484;2023-04-03T07:39:01;15.60;54.00
68766;DHT22;55756;45.582;11.484;2023-04-03T07:41:27;15.60;54.40
68766;DHT22;55756;45.582;11.484;2023-04-03T07:43:54;15.60;54.70
68766;DHT22;55756;45.582;11.484;2023-04-03T07:46:22;15.60;54.70
68766;DHT22;55756;45.582;11.484;2023-04-03T07:48:47;15.70;54.90
68766;DHT22;55756;45.582;11.484;2023-04-03T07:51:13;15.70;54.90
68766;DHT22;55756;45.582;11.484;2023-04-03T07:53:39;15.70;54.90
68766;DHT22;55756;45.582;11.484;2023-04-03T07:56:05;15.70;54.90
68766;DHT22;55756;45.582;11.484;2023-04-03T07:58:31;15.80;54.80
68766;DHT22;55756;45.582;11.484;2023-04-03T08:00:56;15.80;54.40
68766;DHT22;55756;45.582;11.484;2023-04-03T08:03:23;15.80;53.90
68766;DHT22;55756;45.582;11.484;2023-04-03T08:05:49;15.80;53.50
68766;DHT22;55756;45.582;11.484;2023-04-03T08:08:22;15.80;52.70
68766;DHT22;55756;45.582;11.484;2023-04-03T08:10:52;15.80;52.10
68766;DHT22;55756;45.582;11.484;2023-04-03T08:13:19;15.90;51.90
68766;DHT22;55756;45.582;11.484;2023-04-03T08:15:45;15.90;51.80
68766;DHT22;55756;45.582;11.484;2023-04-03T08:18:12;16.00;52.00
68766;DHT22;55756;45.582;11.484;2023-04-03T08:20:39;16.00;52.20
68766;DHT22;55756;45.582;11.484;2023-04-03T08:23:06;16.10;52.10
68766;DHT22;55756;45.582;11.484;2023-04-03T08:25:42;16.10;51.60
68766;DHT22;55756;45.582;11.484;2023-04-03T08:28:10;16.10;51.50
68766;DHT22;55756;45.582;11.484;2023-04-03T08:30:38;16.10;51.00
68766;DHT22;55756;45.582;11.484;2023-04-03T08:33:03;16.10;50.90
68766;DHT22;55756;45.582;11.484;2023-04-03T08:35:30;16.20;51.20
68766;DHT22;55756;45.582;11.484;2023-04-03T08:37:55;16.20;51.50
68766;DHT22;55756;45.582;11.484;2023-04-03T08:40:22;16.20;51.30
68766;DHT22;55756;45.582;11.484;2023-04-03T08:43:07;16.30;50.90
68766;DHT22;55756;45.582;11.484;2023-04-03T08:45:45;16.30;49.60
68766;DHT22;55756;45.582;11.484;2023-04-03T08:48:19;16.40;49.40
68766;DHT22;55756;45.582;11.484;2023-04-03T08:50:49;16.40;49.70
68766;DHT22;55756;45.582;11.484;2023-04-03T08:53:19;16.50;49.40
68766;DHT22;55756;45.582;11.484;2023-04-03T08:55:51;16.60;48.70
68766;DHT22;55756;45.582;11.484;2023-04-03T08:58:23;16.60;48.30
68766;DHT22;55756;45.582;11.484;2023-04-03T09:01:04;16.70;47.90
68766;DHT22;55756;45.582;11.484;2023-04-03T09:03:32;16.70;48.60
68766;DHT22;55756;45.582;11.484;2023-04-03T09:06:14;16.70;48.40
68766;DHT22;55756;45.582;11.484;2023-04-03T09:15:06;16.80;48.40
68766;DHT22;55756;45.582;11.484;2023-04-03T09:23:26;16.80;46.40
68766;DHT22;55756;45.582;11.484;2023-04-03T09:25:53;16.90;46.10
68766;DHT22;55756;45.582;11.484;2023-04-03T09:28:20;16.90;46.00
68766;DHT22;55756;45.582;11.484;2023-04-03T09:30:47;16.90;45.50
68766;DHT22;55756;45.582;11.484;2023-04-03T09:33:13;16.90;46.30
68766;DHT22;55756;45.582;11.484;2023-04-03T09:35:41;16.90;46.20
68766;DHT22;55756;45.582;11.484;2023-04-03T09:40:41;17.10;46.60
68766;DHT22;55756;45.582;11.484;2023-04-03T09:45:43;17.10;46.10
68766;DHT22;55756;45.582;11.484;2023-04-03T09:53:38;17.10;45.80
68766;DHT22;55756;45.582;11.484;2023-04-03T09:56:27;17.10;46.40
68766;DHT22;55756;45.582;11.484;2023-04-03T10:01:33;17.10;45.20
68766;DHT22;55756;45.582;11.484;2023-04-03T10:04:12;17.10;45.30
68766;DHT22;55756;45.582;11.484;2023-04-03T10:09:28;17.10;45.80
68766;DHT22;55756;45.582;11.484;2023-04-03T10:17:19;17.10;45.80
68766;DHT22;55756;45.582;11.484;2023-04-03T10:22:40;17.10;45.70
68766;DHT22;55756;45.582;11.484;2023-04-03T10:25:15;17.10;45.70
68766;DHT22;55756;45.582;11.484;2023-04-03T10:40:57;17.30;44.60
68766;DHT22;55756;45.582;11.484;2023-04-03T10:46:34;17.40;44.80
68766;DHT22;55756;45.582;11.484;2023-04-03T10:51:44;17.40;45.00
68766;DHT22;55756;45.582;11.484;2023-04-03T10:54:35;17.40;45.10
68766;DHT22;55756;45.582;11.484;2023-04-03T10:57:05;17.50;45.20
68766;DHT22;55756;45.582;11.484;2023-04-03T11:02:14;17.50;44.40
68766;DHT22;55756;45.582;11.484;2023-04-03T11:04:48;17.50;44.50
68766;DHT22;55756;45.582;11.484;2023-04-03T11:07:27;17.40;44.80
68766;DHT22;55756;45.582;11.484;2023-04-03T11:10:00;17.40;44.70
68766;DHT22;55756;45.582;11.484;2023-04-03T11:12:41;17.40;44.30
68766;DHT22;55756;45.582;11.484;2023-04-03T11:15:13;17.50;44.70
68766;DHT22;55756;45.582;11.484;2023-04-03T11:18:02;17.50;44.60
68766;DHT22;55756;45.582;11.484;2023-04-03T11:20:31;17.50;44.50
68766;DHT22;55756;45.582;11.484;2023-04-03T11:23:21;17.60;44.30
68766;DHT22;55756;45.582;11.484;2023-04-03T11:25:51;17.60;44.50
68766;DHT22;55756;45.582;11.484;2023-04-03T11:28:18;17.60;44.70
68766;DHT22;55756;45.582;11.484;2023-04-03T11:33:40;17.70;44.30
68766;DHT22;55756;45.582;11.484;2023-04-03T11:36:18;17.70;43.50
68766;DHT22;55756;45.582;11.484;2023-04-03T11:38:47;17.70;43.30
68766;DHT22;55756;45.582;11.484;2023-04-03T11:41:14;17.70;43.00
68766;DHT22;55756;45.582;11.484;2023-04-03T11:43:55;17.70;43.20
68766;DHT22;55756;45.582;11.484;2023-04-03T11:46:21;17.80;43.30
68766;DHT22;55756;45.582;11.484;2023-04-03T11:48:49;17.80;43.60
68766;DHT22;55756;45.582;11.484;2023-04-03T11:51:38;17.80;43.90
68766;DHT22;55756;45.582;11.484;2023-04-03T11:54:43;17.80;43.40
68766;DHT22;55756;45.582;11.484;2023-04-03T11:57:44;17.80;43.80
68766;DHT22;55756;45.582;11.484;2023-04-03T12:05:53;17.90;42.60
68766;DHT22;55756;45.582;11.484;2023-04-03T12:38:19;17.90;42.80
68766;DHT22;55756;45.582;11.484;2023-04-03T12:46:51;18.00;43.80
68766;DHT22;55756;45.582;11.484;2023-04-03T12:49:31;18.00;43.60
68766;DHT22;55756;45.582;11.484;2023-04-03T12:51:58;17.90;42.90
68766;DHT22;55756;45.582;11.484;2023-04-03T12:54:35;17.90;42.80
68766;DHT22;55756;45.582;11.484;2023-04-03T12:59:36;17.80;43.20
68766;DHT22;55756;45.582;11.484;2023-04-03T13:02:20;17.80;43.20
68766;DHT22;55756;45.582;11.484;2023-04-03T13:04:47;17.70;43.10
68766;DHT22;55756;45.582;11.484;2023-04-03T13:07:30;17.80;44.40
68766;DHT22;55756;45.582;11.484;2023-04-03T13:10:20;17.80;45.10
68766;DHT22;55756;45.582;11.484;2023-04-03T13:15:39;17.90;44.10
68766;DHT22;55756;45.582;11.484;2023-04-03T13:18:10;17.90;43.50
68766;DHT22;55756;45.582;11.484;2023-04-03T13:20:48;17.90;42.50
68766;DHT22;55756;45.582;11.484;2023-04-03T13:23:17;17.90;43.00
68766;DHT22;55756;45.582;11.484;2023-04-03T13:25:46;17.90;42.50
68766;DHT22;55756;45.582;11.484;2023-04-03T13:28:17;17.90;42.40
68766;DHT22;55756;45.582;11.484;2023-04-03T13:31:02;18.00;41.80
68766;DHT22;55756;45.582;11.484;2023-04-03T13:33:31;18.00;41.10
68766;DHT22;55756;45.582;11.484;2023-04-03T13:36:22;18.00;40.80
68766;DHT22;55756;45.582;11.484;2023-04-03T13:39:33;18.00;40.80
68766;DHT22;55756;45.582;11.484;2023-04-03T13:42:14;18.00;40.90
68766;DHT22;55756;45.582;11.484;2023-04-03T13:44:38;18.00;41.00
68766;DHT22;55756;45.582;11.484;2023-04-03T13:47:21;18.00;40.70
68766;DHT22;55756;45.582;11.484;2023-04-03T13:50:03;18.10;40.90
68766;DHT22;55756;45.582;11.484;2023-04-03T13:53:12;18.00;41.30
68766;DHT22;55756;45.582;11.484;2023-04-03T14:19:57;17.90;41.60
68766;DHT22;55756;45.582;11.484;2023-04-03T14:22:29;17.90;40.90
68766;DHT22;55756;45.582;11.484;2023-04-03T14:24:55;17.90;40.70
68766;DHT22;55756;45.582;11.484;2023-04-03T14:27:42;17.90;40.40
68766;DHT22;55756;45.582;11.484;2023-04-03T14:30:16;17.90;39.80
68766;DHT22;55756;45.582;11.484;2023-04-03T14:32:46;17.90;40.90
68766;DHT22;55756;45.582;11.484;2023-04-03T14:35:14;17.80;40.40
68766;DHT22;55756;45.582;11.484;2023-04-03T14:37:40;17.80;39.90
68766;DHT22;55756;45.582;11.484;2023-04-03T14:40:07;17.80;39.80
68766;DHT22;55756;45.582;11.484;2023-04-03T14:42:36;17.80;40.70
68766;DHT22;55756;45.582;11.484;2023-04-03T14:45:06;17.70;40.10
68766;DHT22;55756;45.582;11.484;2023-04-03T14:47:32;17.70;40.50
68766;DHT22;55756;45.582;11.484;2023-04-03T14:50:00;17.70;40.10
68766;DHT22;55756;45.582;11.484;2023-04-03T14:52:30;17.80;39.90
68766;DHT22;55756;45.582;11.484;2023-04-03T14:54:57;17.80;40.20
68766;DHT22;55756;45.582;11.484;2023-04-03T14:57:25;17.80;40.60
68766;DHT22;55756;45.582;11.484;2023-04-03T14:59:51;17.80;40.50
68766;DHT22;55756;45.582;11.484;2023-04-03T15:04:53;17.80;40.70
68766;DHT22;55756;45.582;11.484;2023-04-03T15:07:19;17.80;39.30
68766;DHT22;55756;45.582;11.484;2023-04-03T15:09:45;17.80;38.70
68766;DHT22;55756;45.582;11.484;2023-04-03T15:12:11;17.80;38.30
68766;DHT22;55756;45.582;11.484;2023-04-03T15:14:36;17.80;38.40
68766;DHT22;55756;45.582;11.484;2023-04-03T15:17:03;17.70;39.10
68766;DHT22;55756;45.582;11.484;2023-04-03T15:19:32;17.70;38.50
68766;DHT22;55756;45.582;11.484;2023-04-03T15:22:01;17.70;38.20
68766;DHT22;55756;45.582;11.484;2023-04-03T15:24:26;17.60;38.30
68766;DHT22;55756;45.582;11.484;2023-04-03T15:26:52;17.60;38.40
68766;DHT22;55756;45.582;11.484;2023-04-03T15:29:18;17.60;37.90
68766;DHT22;55756;45.582;11.484;2023-04-03T15:31:44;17.60;37.50
68766;DHT22;55756;45.582;11.484;2023-04-03T15:34:09;17.60;37.80
68766;DHT22;55756;45.582;11.484;2023-04-03T15:36:35;17.60;37.70
68766;DHT22;55756;45.582;11.484;2023-04-03T15:39:01;17.60;37.70
68766;DHT22;55756;45.582;11.484;2023-04-03T15:41:26;17.60;37.40
68766;DHT22;55756;45.582;11.484;2023-04-03T15:43:55;17.50;37.10
68766;DHT22;55756;45.582;11.484;2023-04-03T15:46:21;17.50;36.80
68766;DHT22;55756;45.582;11.484;2023-04-03T15:48:47;17.50;36.40
68766;DHT22;55756;45.582;11.484;2023-04-03T15:51:12;17.50;36.50
68766;DHT22;55756;45.582;11.484;2023-04-03T15:53:38;17.40;36.70
68766;DHT22;55756;45.582;11.484;2023-04-03T15:56:04;17.50;36.70
68766;DHT22;55756;45.582;11.484;2023-04-03T15:58:30;17.40;36.20
68766;DHT22;55756;45.582;11.484;2023-04-03T16:00:56;17.40;36.10
68766;DHT22;55756;45.582;11.484;2023-04-03T16:03:22;17.40;36.10
68766;DHT22;55756;45.582;11.484;2023-04-03T16:05:50;17.40;36.00
68766;DHT22;55756;45.582;11.484;2023-04-03T16:08:16;17.40;35.70
68766;DHT22;55756;45.582;11.484;2023-04-03T16:10:43;17.40;35.80
68766;DHT22;55756;45.582;11.484;2023-04-03T16:13:11;17.40;35.30
68766;DHT22;55756;45.582;11.484;2023-04-03T16:15:37;17.40;35.10
68766;DHT22;55756;45.582;11.484;2023-04-03T16:18:04;17.40;35.00
68766;DHT22;55756;45.582;11.484;2023-04-03T16:20:31;17.30;35.20
68766;DHT22;55756;45.582;11.484;2023-04-03T16:22:58;17.30;35.30
68766;DHT22;55756;45.582;11.484;2023-04-03T16:34:02;17.20;35.00
68766;DHT22;55756;45.582;11.484;2023-04-03T16:36:56;17.30;35.00
68766;DHT22;55756;45.582;11.484;2023-04-03T16:39:38;17.20;34.90
68766;DHT22;55756;45.582;11.484;2023-04-03T16:42:10;17.20;34.80
68766;DHT22;55756;45.582;11.484;2023-04-03T16:45:36;17.20;35.00
68766;DHT22;55756;45.582;11.484;2023-04-03T16:49:15;17.20;35.00
68766;DHT22;55756;45.582;11.484;2023-04-03T16:59:22;17.10;36.00
68766;DHT22;55756;45.582;11.484;2023-04-03T17:02:08;17.10;36.20
68766;DHT22;55756;45.582;11.484;2023-04-03T17:04:34;17.00;35.80
68766;DHT22;55756;45.582;11.484;2023-04-03T17:07:00;17.00;35.80
68766;DHT22;55756;45.582;11.484;2023-04-03T17:09:30;17.00;35.50
68766;DHT22;55756;45.582;11.484;2023-04-03T17:11:56;17.00;35.50
68766;DHT22;55756;45.582;11.484;2023-04-03T17:14:22;17.00;36.00
68766;DHT22;55756;45.582;11.484;2023-04-03T17:16:48;17.00;36.00
68766;DHT22;55756;45.582;11.484;2023-04-03T17:19:14;16.90;36.60
68766;DHT22;55756;45.582;11.484;2023-04-03T17:21:43;16.90;37.10
68766;DHT22;55756;45.582;11.484;2023-04-03T17:24:10;16.80;37.80
68766;DHT22;55756;45.582;11.484;2023-04-03T17:26:39;16.70;38.50
68766;DHT22;55756;45.582;11.484;2023-04-03T17:29:05;16.70;40.10
68766;DHT22;55756;45.582;11.484;2023-04-03T17:31:31;16.70;42.00
68766;DHT22;55756;45.582;11.484;2023-04-03T17:33:57;16.60;41.60
68766;DHT22;55756;45.582;11.484;2023-04-03T17:36:30;16.50;41.80
68766;DHT22;55756;45.582;11.484;2023-04-03T17:38:56;16.40;41.40
68766;DHT22;55756;45.582;11.484;2023-04-03T17:41:22;16.40;41.10
